createdAt,value
2022-08-17T00:04:29.246Z,78.17
2022-08-17T00:09:51.146Z,79.04
2022-08-17T00:14:59.876Z,79.70
2022-08-17T00:20:15.384Z,80.06
2022-08-17T00:25:56.000Z,79.41
2022-08-17T00:31:05.171Z,79.04
2022-08-17T00:36:12.929Z,79.53
2022-08-17T00:41:36.890Z,79.61
2022-08-17T00:46:49.490Z,79.39
2022-08-17T00:52:12.828Z,79.63
2022-08-17T00:57:54.649Z,79.39
2022-08-17T01:03:35.954Z,79.46
2022-08-17T01:09:01.886Z,80.01
2022-08-17T01:14:21.612Z,80.09
2022-08-17T01:19:47.634Z,80.25
2022-08-17T01:25:00.000Z,80.17
2022-08-17T01:30:58.970Z,79.81
2022-08-17T01:35:53.590Z,80.04
2022-08-17T01:41:12.707Z,79.82
2022-08-17T01:46:27.275Z,79.68
2022-08-17T01:51:35.534Z,79.81
2022-08-17T01:57:03.948Z,79.99
2022-08-17T02:02:13.011Z,79.82
2022-08-17T02:07:42.338Z,80.01
2022-08-17T02:13:09.843Z,80.09
2022-08-17T02:18:23.026Z,80.61
2022-08-17T02:23:41.479Z,81.11
2022-08-17T02:28:47.832Z,80.93
2022-08-17T02:34:04.093Z,80.81
2022-08-17T02:39:19.429Z,80.50
2022-08-17T02:44:44.511Z,80.22
2022-08-17T02:50:01.566Z,80.26
2022-08-17T02:55:09.423Z,80.25
2022-08-17T03:00:23.344Z,80.12
2022-08-17T03:05:45.423Z,80.11
2022-08-17T03:10:51.355Z,80.08
2022-08-17T03:15:57.188Z,80.00
2022-08-17T03:21:05.210Z,80.23
2022-08-17T03:26:23.763Z,80.22
2022-08-17T03:31:36.910Z,80.16
2022-08-17T03:36:43.122Z,80.10
2022-08-17T03:41:49.295Z,80.01
2022-08-17T03:47:14.341Z,80.05
2022-08-17T03:52:51.897Z,80.03
2022-08-17T03:57:59.185Z,80.15
2022-08-17T04:03:03.881Z,80.68
2022-08-17T04:08:11.073Z,81.13
2022-08-17T04:13:14.895Z,81.13
2022-08-17T04:18:23.181Z,81.14
2022-08-17T04:23:55.907Z,81.12
2022-08-17T04:28:59.794Z,80.94
2022-08-17T04:34:03.299Z,80.67
2022-08-17T04:39:06.552Z,80.31
2022-08-17T04:44:09.739Z,79.65
2022-08-17T04:49:13.067Z,79.25
2022-08-17T04:54:20.437Z,78.88
2022-08-17T04:59:23.609Z,78.39
2022-08-17T05:04:34.457Z,77.54
2022-08-17T05:09:38.672Z,76.84
2022-08-17T05:14:42.188Z,75.57
2022-08-17T05:19:49.990Z,74.90
2022-08-17T05:24:57.986Z,73.78
2022-08-17T05:30:01.074Z,73.18
2022-08-17T05:35:06.359Z,72.88
2022-08-17T05:40:10.817Z,72.49
2022-08-17T05:45:54.206Z,72.01
2022-08-17T05:51:10.138Z,70.10
2022-08-17T05:56:34.079Z,68.53
2022-08-17T06:01:52.717Z,68.28
2022-08-17T06:07:05.236Z,68.22
2022-08-17T06:12:24.522Z,67.39
2022-08-17T06:17:29.711Z,66.50
2022-08-17T06:22:58.254Z,65.71
2022-08-17T06:28:14.888Z,65.05
2022-08-17T06:33:26.392Z,64.11
2022-08-17T06:39:08.477Z,63.02
2022-08-17T06:44:42.189Z,62.13
2022-08-17T06:50:09.393Z,62.32
2022-08-17T06:55:45.334Z,63.44
2022-08-17T07:00:54.222Z,62.52
2022-08-17T07:06:18.364Z,62.89
2022-08-17T07:11:36.809Z,62.16
2022-08-17T07:16:47.337Z,62.08
2022-08-17T07:22:09.250Z,61.43
2022-08-17T07:27:28.909Z,62.14
2022-08-17T07:32:49.378Z,61.53
2022-08-17T07:38:25.108Z,61.15
2022-08-17T07:43:41.204Z,60.37
2022-08-17T07:48:49.926Z,59.59
2022-08-17T07:54:13.629Z,59.17
2022-08-17T07:59:24.166Z,58.90
2022-08-17T08:10:05.972Z,58.32
2022-08-17T08:15:35.179Z,57.07
2022-08-17T08:21:05.360Z,55.79
2022-08-17T08:26:47.144Z,55.51
2022-08-17T08:32:51.155Z,55.08
2022-08-17T08:38:08.243Z,55.26
2022-08-17T08:44:03.950Z,54.45
2022-08-17T08:50:02.865Z,51.78
2022-08-17T08:55:23.568Z,52.49
2022-08-17T09:00:36.066Z,52.17
2022-08-17T09:06:37.366Z,52.80
2022-08-17T09:12:10.829Z,52.90
2022-08-17T09:17:32.785Z,53.27
2022-08-17T09:22:44.770Z,54.60
2022-08-17T09:28:05.299Z,55.29
2022-08-17T09:33:15.886Z,55.43
2022-08-17T09:38:55.550Z,56.06
2022-08-17T09:44:07.690Z,55.58
2022-08-17T09:49:28.904Z,53.90
2022-08-17T09:54:39.701Z,53.22
2022-08-17T10:00:13.788Z,50.92
2022-08-17T10:05:57.110Z,49.52
2022-08-17T10:11:20.035Z,46.99
2022-08-17T10:16:39.008Z,46.69
2022-08-17T10:22:14.564Z,46.19
2022-08-17T10:28:01.391Z,46.51
2022-08-17T10:33:20.588Z,46.42
2022-08-17T10:38:39.444Z,46.44
2022-08-17T10:44:37.252Z,46.97
2022-08-17T10:49:38.838Z,46.66
2022-08-17T10:54:51.898Z,45.76
2022-08-17T11:07:25.979Z,46.49
2022-08-17T11:12:55.889Z,44.85
2022-08-17T11:18:51.008Z,44.35
2022-08-17T11:24:17.830Z,42.94
2022-08-17T11:29:56.763Z,43.69
2022-08-17T11:35:22.205Z,42.91
2022-08-17T11:41:00.647Z,43.35
2022-08-17T11:47:07.050Z,44.98
2022-08-17T11:52:35.048Z,46.83
2022-08-17T11:57:41.196Z,46.84
2022-08-17T12:02:48.493Z,44.69
2022-08-17T12:08:22.036Z,43.22
2022-08-17T12:13:38.714Z,44.37
2022-08-17T12:18:58.646Z,45.72
2022-08-17T12:24:23.355Z,45.16
2022-08-17T12:35:05.344Z,43.67
2022-08-17T12:40:31.694Z,42.90
2022-08-17T12:45:39.901Z,42.60
2022-08-17T12:50:46.301Z,41.94
2022-08-17T12:55:51.715Z,42.12
2022-08-17T13:01:13.906Z,41.91
2022-08-17T13:06:51.932Z,42.38
2022-08-17T13:12:03.301Z,43.24
2022-08-17T13:17:13.460Z,44.14
2022-08-17T13:22:22.986Z,45.53
2022-08-17T13:27:28.706Z,46.41
2022-08-17T13:32:40.457Z,46.54
2022-08-17T13:38:05.542Z,44.62
2022-08-17T13:43:11.098Z,43.67
2022-08-17T13:54:02.886Z,42.67
2022-08-17T13:59:12.868Z,42.35
2022-08-17T14:04:21.675Z,43.17
2022-08-17T14:09:37.540Z,43.58
2022-08-17T14:14:42.756Z,44.67
2022-08-17T14:19:45.919Z,45.14
2022-08-17T14:24:49.075Z,45.49
2022-08-17T14:29:53.379Z,46.02
2022-08-17T14:34:57.950Z,45.63
2022-08-17T14:40:06.835Z,44.37
2022-08-17T14:45:31.495Z,43.46
2022-08-17T14:50:42.403Z,42.45
2022-08-17T14:55:47.315Z,43.03
2022-08-17T15:00:51.812Z,45.06
2022-08-17T15:05:55.516Z,44.58
2022-08-17T15:11:03.554Z,45.76
2022-08-17T15:16:13.893Z,45.51
2022-08-17T15:21:18.353Z,45.58
2022-08-17T15:26:25.690Z,43.63
2022-08-17T15:31:32.313Z,43.06
2022-08-17T15:36:37.337Z,43.44
2022-08-17T15:41:42.381Z,44.01
2022-08-17T15:46:45.520Z,45.31
2022-08-17T15:51:49.728Z,46.03
2022-08-17T15:56:53.019Z,46.51
2022-08-17T16:03:14.922Z,46.31
2022-08-17T16:07:26.571Z,45.85
2022-08-17T16:12:30.058Z,43.75
2022-08-17T16:17:40.206Z,43.94
2022-08-17T16:22:46.352Z,43.88
2022-08-17T16:27:53.696Z,44.60
2022-08-17T16:33:00.036Z,45.39
2022-08-17T16:38:07.392Z,45.74
2022-08-17T16:43:14.368Z,46.38
2022-08-17T16:48:18.657Z,46.87
2022-08-17T16:53:21.840Z,47.15
2022-08-17T16:58:25.098Z,47.92
2022-08-17T17:03:33.160Z,48.74
2022-08-17T17:09:04.706Z,49.72
2022-08-17T17:14:21.201Z,50.18
2022-08-17T17:19:45.698Z,50.69
2022-08-17T17:25:13.942Z,51.15
2022-08-17T17:30:24.345Z,51.71
2022-08-17T17:36:30.041Z,52.17
2022-08-17T17:41:58.998Z,52.42
2022-08-17T17:47:04.518Z,52.30
2022-08-17T17:52:36.495Z,52.49
2022-08-17T17:58:18.418Z,52.49
2022-08-17T18:04:05.328Z,53.16
2022-08-17T18:16:43.008Z,53.96
2022-08-17T18:22:00.951Z,54.13
2022-08-17T18:41:30.540Z,56.18
2022-08-17T18:47:39.558Z,57.06
2022-08-17T18:52:44.472Z,57.99
2022-08-17T18:57:59.305Z,58.42
2022-08-17T19:03:17.953Z,58.08
2022-08-17T19:08:37.829Z,57.99
2022-08-17T19:24:35.296Z,58.90
2022-08-17T19:30:08.343Z,58.85
2022-08-17T19:35:20.421Z,61.24
2022-08-17T19:41:05.065Z,62.88
2022-08-17T19:46:35.864Z,63.94
2022-08-17T19:52:00.416Z,64.25
2022-08-17T19:57:18.564Z,63.73
2022-08-17T20:03:07.155Z,65.04
2022-08-17T20:08:34.684Z,65.86
2022-08-17T20:13:56.045Z,67.10
2022-08-17T20:19:12.929Z,65.82
2022-08-17T20:24:34.857Z,67.19
2022-08-17T20:30:21.469Z,68.22
2022-08-17T20:35:33.388Z,69.35
2022-08-17T20:41:04.846Z,69.51
2022-08-17T20:46:34.651Z,68.56
2022-08-17T20:52:19.796Z,69.13
2022-08-17T20:57:38.216Z,70.17
2022-08-17T21:02:49.764Z,70.71
2022-08-17T21:08:03.925Z,72.00
2022-08-17T21:13:18.496Z,71.83
2022-08-17T21:19:10.359Z,71.43
2022-08-17T21:24:53.692Z,71.21
2022-08-17T21:30:48.369Z,70.80
2022-08-17T21:36:15.792Z,70.86
2022-08-17T21:41:48.000Z,72.36
2022-08-17T21:47:13.534Z,73.69
2022-08-17T21:52:34.146Z,74.79
2022-08-17T21:57:52.963Z,76.53
2022-08-17T22:03:31.477Z,76.39
2022-08-17T22:08:48.923Z,75.55
2022-08-17T22:14:05.874Z,74.34
2022-08-17T22:19:17.891Z,74.18
2022-08-17T22:24:31.139Z,74.93
2022-08-17T22:30:46.160Z,75.72
2022-08-17T22:36:43.580Z,75.49
2022-08-17T22:42:12.410Z,75.90
2022-08-17T22:47:48.967Z,75.18
2022-08-17T22:54:03.964Z,75.17
2022-08-17T22:59:55.707Z,75.27
2022-08-17T23:05:32.261Z,75.37
2022-08-17T23:10:43.305Z,75.68
2022-08-17T23:15:51.510Z,76.27
2022-08-17T23:21:07.432Z,76.31
2022-08-17T23:26:55.560Z,76.69
2022-08-17T23:32:04.914Z,76.62
2022-08-17T23:37:40.477Z,76.89
2022-08-17T23:43:17.451Z,76.53
2022-08-17T23:48:44.466Z,76.47
2022-08-17T23:54:08.353Z,76.65
2022-08-17T23:59:23.709Z,76.75
